<?xml version="1.0" encoding="UTF-8" standalone="no" ?>
<gpx xmlns="http://www.topografix.com/GPX/1/1" xmlns:xsi="http://www.w3.org/2001/XMLSchema-instance" xsi:schemaLocation="http://www.topografix.com/GPX/1/1 http://www.topografix.com/GPX/1/1/gpx.xsd" version="1.1" creator="VisuGPX - https://www.visugpx.com">
  <metadata>
    <name>Saumur_BordLoireThouet_20km</name>
    <desc><![CDATA[gnerando idor:8117883]]></desc>
  </metadata>
  <trk>
    <name><![CDATA[Saumur_BordsLoireThouet_20.3km-8117883]]></name>
    <extensions>
      <line xmlns="http://www.topografix.com/GPX/gpx_style/0/2">
        <color>0000FF</color>
        <width>4</width>
      </line>
    </extensions>
    <trkseg>
      <trkpt lat="47.25992" lon="-0.06463">
        <ele>30</ele>
        <time>2023-11-13T10:55:08Z</time>
      </trkpt>
      <trkpt lat="47.25941" lon="-0.06381">
        <ele>30</ele>
        <time>2023-11-13T10:56:49Z</time>
      </trkpt>
      <trkpt lat="47.25928" lon="-0.06282">
        <ele>29</ele>
        <time>2023-11-13T10:58:20Z</time>
      </trkpt>
      <trkpt lat="47.25859" lon="-0.06184">
        <ele>27</ele>
        <time>2023-11-13T11:00:28Z</time>
      </trkpt>
      <trkpt lat="47.25781" lon="-0.06021">
        <ele>27</ele>
        <time>2023-11-13T11:03:29Z</time>
      </trkpt>
      <trkpt lat="47.25717" lon="-0.05926">
        <ele>25</ele>
        <time>2023-11-13T11:05:30Z</time>
      </trkpt>
      <trkpt lat="47.2572" lon="-0.06072">
        <ele>26</ele>
        <time>2023-11-13T11:07:42Z</time>
      </trkpt>
      <trkpt lat="47.25781" lon="-0.06235">
        <ele>28</ele>
        <time>2023-11-13T11:10:31Z</time>
      </trkpt>
      <trkpt lat="47.25848" lon="-0.06469">
        <ele>28</ele>
        <time>2023-11-13T11:14:21Z</time>
      </trkpt>
      <trkpt lat="47.25916" lon="-0.06628">
        <ele>30</ele>
        <time>2023-11-13T11:17:11Z</time>
      </trkpt>
      <trkpt lat="47.25998" lon="-0.06896">
        <ele>29</ele>
        <time>2023-11-13T11:21:37Z</time>
      </trkpt>
      <trkpt lat="47.26143" lon="-0.07147">
        <ele>28</ele>
        <time>2023-11-13T11:26:36Z</time>
      </trkpt>
      <trkpt lat="47.26209" lon="-0.07244">
        <ele>31</ele>
        <time>2023-11-13T11:28:40Z</time>
      </trkpt>
      <trkpt lat="47.26234" lon="-0.07304">
        <ele>31</ele>
        <time>2023-11-13T11:29:44Z</time>
      </trkpt>
      <trkpt lat="47.26307" lon="-0.07325">
        <ele>33</ele>
        <time>2023-11-13T11:31:23Z</time>
      </trkpt>
      <trkpt lat="47.2635" lon="-0.07409">
        <ele>31</ele>
        <time>2023-11-13T11:32:58Z</time>
      </trkpt>
      <trkpt lat="47.26135" lon="-0.07667">
        <ele>32</ele>
        <time>2023-11-13T11:39:08Z</time>
      </trkpt>
      <trkpt lat="47.25953" lon="-0.07265">
        <ele>28</ele>
        <time>2023-11-13T11:46:26Z</time>
      </trkpt>
      <trkpt lat="47.25765" lon="-0.0695">
        <ele>27</ele>
        <time>2023-11-13T11:52:46Z</time>
      </trkpt>
      <trkpt lat="47.2564" lon="-0.06778">
        <ele>29</ele>
        <time>2023-11-13T11:56:34Z</time>
      </trkpt>
      <trkpt lat="47.25238" lon="-0.06077">
        <ele>34</ele>
        <time>2023-11-13T12:10:25Z</time>
      </trkpt>
      <trkpt lat="47.25158" lon="-0.05791">
        <ele>35</ele>
        <time>2023-11-13T12:15:06Z</time>
      </trkpt>
      <trkpt lat="47.25181" lon="-0.05742">
        <ele>28</ele>
        <time>2023-11-13T12:16:00Z</time>
      </trkpt>
      <trkpt lat="47.25144" lon="-0.05557">
        <ele>26</ele>
        <time>2023-11-13T12:18:54Z</time>
      </trkpt>
      <trkpt lat="47.25176" lon="-0.05192">
        <ele>25</ele>
        <time>2023-11-13T12:24:28Z</time>
      </trkpt>
      <trkpt lat="47.25114" lon="-0.0498">
        <ele>26</ele>
        <time>2023-11-13T12:27:57Z</time>
      </trkpt>
      <trkpt lat="47.25118" lon="-0.0483">
        <ele>24</ele>
        <time>2023-11-13T12:30:13Z</time>
      </trkpt>
      <trkpt lat="47.25045" lon="-0.04662">
        <ele>28</ele>
        <time>2023-11-13T12:33:13Z</time>
      </trkpt>
      <trkpt lat="47.24965" lon="-0.04656">
        <ele>31</ele>
        <time>2023-11-13T12:35:00Z</time>
      </trkpt>
      <trkpt lat="47.24929" lon="-0.046">
        <ele>32</ele>
        <time>2023-11-13T12:36:10Z</time>
      </trkpt>
      <trkpt lat="47.24892" lon="-0.04484">
        <ele>33</ele>
        <time>2023-11-13T12:38:06Z</time>
      </trkpt>
      <trkpt lat="47.24917" lon="-0.0442">
        <ele>31</ele>
        <time>2023-11-13T12:39:13Z</time>
      </trkpt>
      <trkpt lat="47.24868" lon="-0.04321">
        <ele>30</ele>
        <time>2023-11-13T12:41:04Z</time>
      </trkpt>
      <trkpt lat="47.2483" lon="-0.04261">
        <ele>31</ele>
        <time>2023-11-13T12:42:18Z</time>
      </trkpt>
      <trkpt lat="47.24843" lon="-0.04184">
        <ele>30</ele>
        <time>2023-11-13T12:43:30Z</time>
      </trkpt>
      <trkpt lat="47.24629" lon="-0.03693">
        <ele>28</ele>
        <time>2023-11-13T12:52:19Z</time>
      </trkpt>
      <trkpt lat="47.24696" lon="-0.0362">
        <ele>27</ele>
        <time>2023-11-13T12:54:10Z</time>
      </trkpt>
      <trkpt lat="47.24409" lon="-0.02819">
        <ele>28</ele>
        <time>2023-11-13T13:07:51Z</time>
      </trkpt>
      <trkpt lat="47.24346" lon="-0.02738">
        <ele>28</ele>
        <time>2023-11-13T13:09:42Z</time>
      </trkpt>
      <trkpt lat="47.24269" lon="-0.0268">
        <ele>28</ele>
        <time>2023-11-13T13:11:38Z</time>
      </trkpt>
      <trkpt lat="47.24217" lon="-0.02706">
        <ele>34</ele>
        <time>2023-11-13T13:12:51Z</time>
      </trkpt>
      <trkpt lat="47.24182" lon="-0.02824">
        <ele>39</ele>
        <time>2023-11-13T13:14:48Z</time>
      </trkpt>
      <trkpt lat="47.2418" lon="-0.02939">
        <ele>44</ele>
        <time>2023-11-13T13:16:32Z</time>
      </trkpt>
      <trkpt lat="47.24147" lon="-0.03042">
        <ele>51</ele>
        <time>2023-11-13T13:18:15Z</time>
      </trkpt>
      <trkpt lat="47.24126" lon="-0.03248">
        <ele>61</ele>
        <time>2023-11-13T13:21:24Z</time>
      </trkpt>
      <trkpt lat="47.2425" lon="-0.03128">
        <ele>55</ele>
        <time>2023-11-13T13:24:42Z</time>
      </trkpt>
      <trkpt lat="47.2434" lon="-0.03414">
        <ele>58</ele>
        <time>2023-11-13T13:29:27Z</time>
      </trkpt>
      <trkpt lat="47.24409" lon="-0.03611">
        <ele>63</ele>
        <time>2023-11-13T13:32:48Z</time>
      </trkpt>
      <trkpt lat="47.2438" lon="-0.03688">
        <ele>70</ele>
        <time>2023-11-13T13:34:08Z</time>
      </trkpt>
      <trkpt lat="47.2448" lon="-0.03858">
        <ele>62</ele>
        <time>2023-11-13T13:37:32Z</time>
      </trkpt>
      <trkpt lat="47.2449" lon="-0.03939">
        <ele>64</ele>
        <time>2023-11-13T13:38:46Z</time>
      </trkpt>
      <trkpt lat="47.24566" lon="-0.03905">
        <ele>44</ele>
        <time>2023-11-13T13:40:32Z</time>
      </trkpt>
      <trkpt lat="47.24619" lon="-0.04068">
        <ele>47</ele>
        <time>2023-11-13T13:43:16Z</time>
      </trkpt>
      <trkpt lat="47.24616" lon="-0.04162">
        <ele>50</ele>
        <time>2023-11-13T13:44:41Z</time>
      </trkpt>
      <trkpt lat="47.24652" lon="-0.04261">
        <ele>48</ele>
        <time>2023-11-13T13:46:23Z</time>
      </trkpt>
      <trkpt lat="47.24553" lon="-0.04349">
        <ele>72</ele>
        <time>2023-11-13T13:48:57Z</time>
      </trkpt>
      <trkpt lat="47.24538" lon="-0.04469">
        <ele>74</ele>
        <time>2023-11-13T13:50:48Z</time>
      </trkpt>
      <trkpt lat="47.24588" lon="-0.04572">
        <ele>77</ele>
        <time>2023-11-13T13:52:43Z</time>
      </trkpt>
      <trkpt lat="47.24649" lon="-0.04701">
        <ele>79</ele>
        <time>2023-11-13T13:55:05Z</time>
      </trkpt>
      <trkpt lat="47.24705" lon="-0.04815">
        <ele>78</ele>
        <time>2023-11-13T13:57:12Z</time>
      </trkpt>
      <trkpt lat="47.24779" lon="-0.05021">
        <ele>77</ele>
        <time>2023-11-13T14:00:44Z</time>
      </trkpt>
      <trkpt lat="47.24847" lon="-0.05177">
        <ele>80</ele>
        <time>2023-11-13T14:03:31Z</time>
      </trkpt>
      <trkpt lat="47.24824" lon="-0.05233">
        <ele>91</ele>
        <time>2023-11-13T14:04:31Z</time>
      </trkpt>
      <trkpt lat="47.2485" lon="-0.05388">
        <ele>82</ele>
        <time>2023-11-13T14:06:55Z</time>
      </trkpt>
      <trkpt lat="47.2482" lon="-0.05411">
        <ele>85</ele>
        <time>2023-11-13T14:07:41Z</time>
      </trkpt>
      <trkpt lat="47.24828" lon="-0.05456">
        <ele>83</ele>
        <time>2023-11-13T14:08:23Z</time>
      </trkpt>
      <trkpt lat="47.24801" lon="-0.05489">
        <ele>85</ele>
        <time>2023-11-13T14:09:09Z</time>
      </trkpt>
      <trkpt lat="47.2493" lon="-0.05697">
        <ele>82</ele>
        <time>2023-11-13T14:13:25Z</time>
      </trkpt>
      <trkpt lat="47.2485" lon="-0.05763">
        <ele>87</ele>
        <time>2023-11-13T14:15:27Z</time>
      </trkpt>
      <trkpt lat="47.24869" lon="-0.05886">
        <ele>86</ele>
        <time>2023-11-13T14:17:21Z</time>
      </trkpt>
      <trkpt lat="47.24996" lon="-0.06025">
        <ele>87</ele>
        <time>2023-11-13T14:20:52Z</time>
      </trkpt>
      <trkpt lat="47.25089" lon="-0.06263">
        <ele>92</ele>
        <time>2023-11-13T14:25:01Z</time>
      </trkpt>
      <trkpt lat="47.25306" lon="-0.06508">
        <ele>75</ele>
        <time>2023-11-13T14:31:06Z</time>
      </trkpt>
      <trkpt lat="47.25596" lon="-0.06956">
        <ele>66</ele>
        <time>2023-11-13T14:40:27Z</time>
      </trkpt>
      <trkpt lat="47.25584" lon="-0.07124">
        <ele>74</ele>
        <time>2023-11-13T14:43:00Z</time>
      </trkpt>
      <trkpt lat="47.25488" lon="-0.07321">
        <ele>68</ele>
        <time>2023-11-13T14:46:39Z</time>
      </trkpt>
      <trkpt lat="47.25625" lon="-0.07467">
        <ele>59</ele>
        <time>2023-11-13T14:50:25Z</time>
      </trkpt>
      <trkpt lat="47.25677" lon="-0.07467">
        <ele>60</ele>
        <time>2023-11-13T14:51:34Z</time>
      </trkpt>
      <trkpt lat="47.25733" lon="-0.07497">
        <ele>54</ele>
        <time>2023-11-13T14:52:54Z</time>
      </trkpt>
      <trkpt lat="47.25762" lon="-0.07604">
        <ele>44</ele>
        <time>2023-11-13T14:54:38Z</time>
      </trkpt>
      <trkpt lat="47.25676" lon="-0.07639">
        <ele>42</ele>
        <time>2023-11-13T14:56:37Z</time>
      </trkpt>
      <trkpt lat="47.25717" lon="-0.07823">
        <ele>33</ele>
        <time>2023-11-13T14:59:33Z</time>
      </trkpt>
      <trkpt lat="47.25631" lon="-0.07827">
        <ele>34</ele>
        <time>2023-11-13T15:01:28Z</time>
      </trkpt>
      <trkpt lat="47.25571" lon="-0.07879">
        <ele>31</ele>
        <time>2023-11-13T15:03:01Z</time>
      </trkpt>
      <trkpt lat="47.25577" lon="-0.07943">
        <ele>30</ele>
        <time>2023-11-13T15:03:59Z</time>
      </trkpt>
      <trkpt lat="47.25435" lon="-0.0818">
        <ele>29</ele>
        <time>2023-11-13T15:08:45Z</time>
      </trkpt>
      <trkpt lat="47.25308" lon="-0.08425">
        <ele>30</ele>
        <time>2023-11-13T15:13:25Z</time>
      </trkpt>
      <trkpt lat="47.25255" lon="-0.08352">
        <ele>29</ele>
        <time>2023-11-13T15:15:01Z</time>
      </trkpt>
      <trkpt lat="47.25238" lon="-0.08396">
        <ele>29</ele>
        <time>2023-11-13T15:15:47Z</time>
      </trkpt>
      <trkpt lat="47.25123" lon="-0.08317">
        <ele>27</ele>
        <time>2023-11-13T15:18:37Z</time>
      </trkpt>
      <trkpt lat="47.24978" lon="-0.08306">
        <ele>27</ele>
        <time>2023-11-13T15:21:50Z</time>
      </trkpt>
      <trkpt lat="47.24856" lon="-0.08394">
        <ele>27</ele>
        <time>2023-11-13T15:24:52Z</time>
      </trkpt>
      <trkpt lat="47.2475" lon="-0.08435">
        <ele>29</ele>
        <time>2023-11-13T15:27:18Z</time>
      </trkpt>
      <trkpt lat="47.24614" lon="-0.0846">
        <ele>27</ele>
        <time>2023-11-13T15:30:21Z</time>
      </trkpt>
      <trkpt lat="47.2454" lon="-0.0851">
        <ele>26</ele>
        <time>2023-11-13T15:32:09Z</time>
      </trkpt>
      <trkpt lat="47.24454" lon="-0.08553">
        <ele>26</ele>
        <time>2023-11-13T15:34:11Z</time>
      </trkpt>
      <trkpt lat="47.24396" lon="-0.08712">
        <ele>28</ele>
        <time>2023-11-13T15:36:54Z</time>
      </trkpt>
      <trkpt lat="47.24442" lon="-0.0878">
        <ele>32</ele>
        <time>2023-11-13T15:38:21Z</time>
      </trkpt>
      <trkpt lat="47.24469" lon="-0.08922">
        <ele>38</ele>
        <time>2023-11-13T15:40:35Z</time>
      </trkpt>
      <trkpt lat="47.24597" lon="-0.08772">
        <ele>37</ele>
        <time>2023-11-13T15:44:13Z</time>
      </trkpt>
      <trkpt lat="47.24748" lon="-0.08707">
        <ele>31</ele>
        <time>2023-11-13T15:47:43Z</time>
      </trkpt>
      <trkpt lat="47.2492" lon="-0.08587">
        <ele>30</ele>
        <time>2023-11-13T15:51:57Z</time>
      </trkpt>
      <trkpt lat="47.25124" lon="-0.08609">
        <ele>29</ele>
        <time>2023-11-13T15:56:30Z</time>
      </trkpt>
      <trkpt lat="47.25195" lon="-0.08689">
        <ele>29</ele>
        <time>2023-11-13T15:58:29Z</time>
      </trkpt>
      <trkpt lat="47.25268" lon="-0.08657">
        <ele>30</ele>
        <time>2023-11-13T16:00:11Z</time>
      </trkpt>
      <trkpt lat="47.25342" lon="-0.08574">
        <ele>28</ele>
        <time>2023-11-13T16:02:15Z</time>
      </trkpt>
      <trkpt lat="47.25356" lon="-0.08558">
        <ele>28</ele>
        <time>2023-11-13T16:02:39Z</time>
      </trkpt>
      <trkpt lat="47.25381" lon="-0.08582">
        <ele>28</ele>
        <time>2023-11-13T16:03:18Z</time>
      </trkpt>
      <trkpt lat="47.25365" lon="-0.08605">
        <ele>28</ele>
        <time>2023-11-13T16:03:48Z</time>
      </trkpt>
      <trkpt lat="47.25386" lon="-0.08647">
        <ele>30</ele>
        <time>2023-11-13T16:04:35Z</time>
      </trkpt>
      <trkpt lat="47.25385" lon="-0.08709">
        <ele>30</ele>
        <time>2023-11-13T16:05:32Z</time>
      </trkpt>
      <trkpt lat="47.25424" lon="-0.08774">
        <ele>29</ele>
        <time>2023-11-13T16:06:50Z</time>
      </trkpt>
      <trkpt lat="47.2546" lon="-0.08864">
        <ele>27</ele>
        <time>2023-11-13T16:08:25Z</time>
      </trkpt>
      <trkpt lat="47.2551" lon="-0.08942">
        <ele>25</ele>
        <time>2023-11-13T16:10:02Z</time>
      </trkpt>
      <trkpt lat="47.25599" lon="-0.08999">
        <ele>27</ele>
        <time>2023-11-13T16:12:11Z</time>
      </trkpt>
      <trkpt lat="47.25718" lon="-0.09062">
        <ele>26</ele>
        <time>2023-11-13T16:15:00Z</time>
      </trkpt>
      <trkpt lat="47.25845" lon="-0.09115">
        <ele>29</ele>
        <time>2023-11-13T16:17:56Z</time>
      </trkpt>
      <trkpt lat="47.25905" lon="-0.09165">
        <ele>28</ele>
        <time>2023-11-13T16:19:28Z</time>
      </trkpt>
      <trkpt lat="47.25972" lon="-0.09175">
        <ele>28</ele>
        <time>2023-11-13T16:20:58Z</time>
      </trkpt>
      <trkpt lat="47.2607" lon="-0.09152">
        <ele>28</ele>
        <time>2023-11-13T16:23:11Z</time>
      </trkpt>
      <trkpt lat="47.2624" lon="-0.09318">
        <ele>28</ele>
        <time>2023-11-13T16:27:43Z</time>
      </trkpt>
      <trkpt lat="47.26301" lon="-0.09361">
        <ele>28</ele>
        <time>2023-11-13T16:29:13Z</time>
      </trkpt>
      <trkpt lat="47.26318" lon="-0.09444">
        <ele>27</ele>
        <time>2023-11-13T16:30:32Z</time>
      </trkpt>
      <trkpt lat="47.26356" lon="-0.09549">
        <ele>26</ele>
        <time>2023-11-13T16:32:19Z</time>
      </trkpt>
      <trkpt lat="47.26394" lon="-0.09554">
        <ele>26</ele>
        <time>2023-11-13T16:33:10Z</time>
      </trkpt>
      <trkpt lat="47.26427" lon="-0.0954">
        <ele>26</ele>
        <time>2023-11-13T16:33:56Z</time>
      </trkpt>
      <trkpt lat="47.26459" lon="-0.09512">
        <ele>27</ele>
        <time>2023-11-13T16:34:46Z</time>
      </trkpt>
      <trkpt lat="47.26503" lon="-0.09529">
        <ele>26</ele>
        <time>2023-11-13T16:35:46Z</time>
      </trkpt>
      <trkpt lat="47.26564" lon="-0.09504">
        <ele>25</ele>
        <time>2023-11-13T16:37:11Z</time>
      </trkpt>
      <trkpt lat="47.26584" lon="-0.0946">
        <ele>26</ele>
        <time>2023-11-13T16:37:59Z</time>
      </trkpt>
      <trkpt lat="47.26566" lon="-0.09388">
        <ele>29</ele>
        <time>2023-11-13T16:39:08Z</time>
      </trkpt>
      <trkpt lat="47.26586" lon="-0.0931">
        <ele>30</ele>
        <time>2023-11-13T16:40:24Z</time>
      </trkpt>
      <trkpt lat="47.26623" lon="-0.09266">
        <ele>31</ele>
        <time>2023-11-13T16:41:27Z</time>
      </trkpt>
      <trkpt lat="47.2658" lon="-0.09202">
        <ele>32</ele>
        <time>2023-11-13T16:42:49Z</time>
      </trkpt>
      <trkpt lat="47.26644" lon="-0.09149">
        <ele>30</ele>
        <time>2023-11-13T16:44:27Z</time>
      </trkpt>
      <trkpt lat="47.26706" lon="-0.09056">
        <ele>31</ele>
        <time>2023-11-13T16:46:25Z</time>
      </trkpt>
      <trkpt lat="47.26806" lon="-0.08909">
        <ele>31</ele>
        <time>2023-11-13T16:49:33Z</time>
      </trkpt>
      <trkpt lat="47.26833" lon="-0.08834">
        <ele>29</ele>
        <time>2023-11-13T16:50:50Z</time>
      </trkpt>
      <trkpt lat="47.26819" lon="-0.0871">
        <ele>22</ele>
        <time>2023-11-13T16:52:44Z</time>
      </trkpt>
      <trkpt lat="47.26763" lon="-0.08613">
        <ele>22</ele>
        <time>2023-11-13T16:54:39Z</time>
      </trkpt>
      <trkpt lat="47.26447" lon="-0.08225">
        <ele>27</ele>
        <time>2023-11-13T17:03:48Z</time>
      </trkpt>
      <trkpt lat="47.26125" lon="-0.07669">
        <ele>33</ele>
        <time>2023-11-13T17:14:50Z</time>
      </trkpt>
      <trkpt lat="47.26344" lon="-0.07412">
        <ele>31</ele>
        <time>2023-11-13T17:21:04Z</time>
      </trkpt>
      <trkpt lat="47.26301" lon="-0.07312">
        <ele>33</ele>
        <time>2023-11-13T17:22:51Z</time>
      </trkpt>
      <trkpt lat="47.26226" lon="-0.07293">
        <ele>31</ele>
        <time>2023-11-13T17:24:33Z</time>
      </trkpt>
      <trkpt lat="47.26008" lon="-0.06902">
        <ele>30</ele>
        <time>2023-11-13T17:32:11Z</time>
      </trkpt>
      <trkpt lat="47.2591" lon="-0.06638">
        <ele>30</ele>
        <time>2023-11-13T17:36:43Z</time>
      </trkpt>
      <trkpt lat="47.25942" lon="-0.06552">
        <ele>30</ele>
        <time>2023-11-13T17:38:12Z</time>
      </trkpt>
      <trkpt lat="47.25988" lon="-0.06526">
        <ele>30</ele>
        <time>2023-11-13T17:39:18Z</time>
      </trkpt>
      <trkpt lat="47.25992" lon="-0.06464">
        <ele>30</ele>
        <time>2023-11-13T17:40:14Z</time>
      </trkpt>
    </trkseg>
  </trk>
</gpx>